createdAt,value
2018-04-19T00:00:07.020Z,0
2018-04-19T00:01:07.242Z,0
2018-04-19T00:02:07.224Z,0
2018-04-19T00:03:07.201Z,0
2018-04-19T00:04:07.427Z,0
2018-04-19T00:05:07.166Z,0
2018-04-19T00:06:07.144Z,0
2018-04-19T00:07:07.367Z,0
2018-04-19T00:08:07.089Z,0
2018-04-19T00:09:07.122Z,0
2018-04-19T00:10:07.307Z,0
2018-04-19T00:11:06.786Z,0
2018-04-19T00:12:06.763Z,0
2018-04-19T00:13:06.989Z,0
2018-04-19T00:14:06.726Z,0
2018-04-19T00:15:06.694Z,0
2018-04-19T00:16:06.933Z,0
2018-04-19T00:17:06.903Z,0
2018-04-19T00:18:06.631Z,0
2018-04-19T00:19:06.867Z,0
2018-04-19T00:20:06.839Z,0
2018-04-19T00:21:06.817Z,0
2018-04-19T00:22:06.800Z,0
2018-04-19T00:23:07.034Z,0
2018-04-19T00:24:06.995Z,0
2018-04-19T00:25:06.785Z,0
2018-04-19T00:26:06.948Z,0
2018-04-19T00:27:06.940Z,0
2018-04-19T00:28:06.913Z,0
2018-04-19T00:29:06.394Z,0
2018-04-19T00:30:06.624Z,0
2018-04-19T00:31:06.899Z,0
2018-04-19T00:32:06.827Z,0
2018-04-19T00:33:06.562Z,0
2018-04-19T00:34:06.543Z,0
2018-04-19T00:35:06.516Z,0
2018-04-19T00:36:06.749Z,0
2018-04-19T00:37:06.723Z,0
2018-04-19T00:38:06.459Z,0
2018-04-19T00:39:06.439Z,0
2018-04-19T00:40:06.416Z,0
2018-04-19T00:41:06.641Z,0
2018-04-19T00:42:06.612Z,0
2018-04-19T00:43:06.350Z,0
2018-04-19T00:44:06.319Z,0
2018-04-19T00:45:06.307Z,0
2018-04-19T00:46:06.286Z,0
2018-04-19T00:47:06.511Z,0
2018-04-19T00:48:06.480Z,0
2018-04-19T00:49:06.225Z,0
2018-04-19T00:50:06.501Z,0
2018-04-19T00:51:06.417Z,0
2018-04-19T00:52:06.391Z,0
2018-04-19T00:53:06.382Z,0
2018-04-19T00:54:06.117Z,0
2018-04-19T00:55:06.086Z,0
2018-04-19T00:56:05.825Z,0
2018-04-19T00:57:06.041Z,0
2018-04-19T00:58:06.021Z,0
2018-04-19T00:59:05.746Z,0
2018-04-19T01:00:06.227Z,0
2018-04-19T01:01:06.199Z,0
2018-04-19T01:02:06.182Z,0
2018-04-19T01:03:05.905Z,0
2018-04-19T01:04:06.133Z,0
2018-04-19T01:05:06.116Z,0
2018-04-19T01:06:05.844Z,0
2018-04-19T01:07:06.069Z,0
2018-04-19T01:08:06.040Z,0
2018-04-19T01:09:06.033Z,0
2018-04-19T01:10:06.007Z,0
2018-04-19T01:11:05.486Z,0
2018-04-19T01:12:05.713Z,0
2018-04-19T01:13:05.688Z,0
2018-04-19T01:14:05.668Z,0
2018-04-19T01:15:05.395Z,0
2018-04-19T01:16:05.632Z,0
2018-04-19T01:17:05.358Z,0
2018-04-19T01:18:05.830Z,0
2018-04-19T01:19:05.560Z,0
2018-04-19T01:20:05.553Z,0
2018-04-19T01:21:05.513Z,0
2018-04-19T01:22:05.493Z,0
2018-04-19T01:23:05.717Z,0
2018-04-19T01:24:05.452Z,0
2018-04-19T01:25:05.438Z,0
2018-04-19T01:26:05.405Z,0
2018-04-19T01:27:05.378Z,0
2018-04-19T01:28:05.607Z,0
2018-04-19T01:29:05.090Z,0
2018-04-19T01:30:05.328Z,0
2018-04-19T01:31:05.589Z,0
2018-04-19T01:32:05.275Z,0
2018-04-19T01:33:05.501Z,0
2018-04-19T01:34:05.478Z,0
2018-04-19T01:35:05.460Z,0
2018-04-19T01:36:05.442Z,0
2018-04-19T01:37:05.417Z,0
2018-04-19T01:38:05.143Z,0
2018-04-19T01:39:05.381Z,0
2018-04-19T01:40:05.103Z,0
2018-04-19T01:41:05.321Z,0
2018-04-19T01:42:05.304Z,0
2018-04-19T01:43:05.394Z,0
2018-04-19T01:44:05.014Z,0
2018-04-19T01:45:04.987Z,0
2018-04-19T01:46:04.969Z,0
2018-04-19T01:47:04.942Z,0
2018-04-19T01:48:05.172Z,0
2018-04-19T01:49:04.897Z,0
2018-04-19T01:50:05.126Z,0
2018-04-19T01:51:04.605Z,0
2018-04-19T01:52:04.585Z,0
2018-04-19T01:53:05.083Z,0
2018-04-19T01:54:04.291Z,0
2018-04-19T01:55:04.764Z,0
2018-04-19T01:56:04.746Z,0
2018-04-19T01:57:04.720Z,0
2018-04-19T01:58:04.461Z,0
2018-04-19T01:59:04.681Z,0
2018-04-19T02:00:04.408Z,0
2018-04-19T02:01:04.637Z,0
2018-04-19T02:02:04.624Z,0
2018-04-19T02:03:04.585Z,0
2018-04-19T02:04:04.563Z,0
2018-04-19T02:05:04.787Z,0
2018-04-19T02:06:04.524Z,0
2018-04-19T02:07:04.519Z,0
2018-04-19T02:08:04.485Z,0
2018-04-19T02:09:04.451Z,0
2018-04-19T02:10:04.431Z,0
2018-04-19T02:11:04.406Z,0
2018-04-19T02:12:04.387Z,0
2018-04-19T02:13:04.112Z,0
2018-04-19T02:14:04.589Z,0
2018-04-19T02:15:04.331Z,0
2018-04-19T02:16:04.309Z,0
2018-04-19T02:17:04.533Z,0
2018-04-19T02:18:04.376Z,0
2018-04-19T02:19:04.486Z,0
2018-04-19T02:20:04.461Z,0
2018-04-19T02:21:04.180Z,0
2018-04-19T02:22:04.174Z,0
2018-04-19T02:23:04.394Z,0
2018-04-19T02:24:04.366Z,0
2018-04-19T02:25:04.096Z,0
2018-04-19T02:26:04.076Z,0
2018-04-19T02:27:04.065Z,0
2018-04-19T02:28:04.284Z,0
2018-04-19T02:29:04.005Z,0
2018-04-19T02:30:03.740Z,0
2018-04-19T02:31:03.956Z,0
2018-04-19T02:32:03.942Z,0
2018-04-19T02:33:03.915Z,0
2018-04-19T02:34:03.895Z,0
2018-04-19T02:35:03.870Z,0
2018-04-19T02:36:04.101Z,0
2018-04-19T02:37:03.844Z,0
2018-04-19T02:38:04.072Z,0
2018-04-19T02:39:03.779Z,0
2018-04-19T02:40:04.026Z,0
2018-04-19T02:41:03.988Z,0
2018-04-19T02:42:03.727Z,0
2018-04-19T02:43:03.948Z,0
2018-04-19T02:44:03.417Z,0
2018-04-19T02:45:03.649Z,0
2018-04-19T02:46:03.893Z,0
2018-04-19T02:47:03.854Z,0
2018-04-19T02:48:03.834Z,0
2018-04-19T02:49:03.557Z,0
2018-04-19T02:50:03.544Z,0
2018-04-19T02:51:03.520Z,0
2018-04-19T02:52:03.737Z,0
2018-04-19T02:53:03.465Z,0
2018-04-19T02:54:03.691Z,0
2018-04-19T02:55:03.677Z,0
2018-04-19T02:56:03.392Z,0
2018-04-19T02:57:03.617Z,0
2018-04-19T02:58:03.609Z,0
2018-04-19T02:59:03.333Z,0
2018-04-19T03:00:03.303Z,0
2018-04-19T03:01:03.614Z,0
2018-04-19T03:02:03.027Z,0
2018-04-19T03:03:03.489Z,0
2018-04-19T03:04:03.468Z,0
2018-04-19T03:05:03.186Z,0
2018-04-19T03:06:03.168Z,0
2018-04-19T03:07:03.401Z,0
2018-04-19T03:08:03.130Z,0
2018-04-19T03:09:03.346Z,0
2018-04-19T03:10:03.327Z,0
2018-04-19T03:11:03.439Z,0
2018-04-19T03:12:03.279Z,0
2018-04-19T03:13:03.256Z,0
2018-04-19T03:14:02.812Z,0
2018-04-19T03:15:02.712Z,0
2018-04-19T03:16:02.933Z,0
2018-04-19T03:17:03.161Z,0
2018-04-19T03:18:03.136Z,0
2018-04-19T03:19:03.162Z,0
2018-04-19T03:20:03.090Z,0
2018-04-19T03:21:03.064Z,0
2018-04-19T03:22:03.053Z,0
2018-04-19T03:23:02.774Z,0
2018-04-19T03:24:03.003Z,0
2018-04-19T03:25:02.730Z,0
2018-04-19T03:26:02.945Z,0
2018-04-19T03:27:02.930Z,0
2018-04-19T03:28:02.909Z,0
2018-04-19T03:29:02.720Z,0
2018-04-19T03:30:02.868Z,0
2018-04-19T03:31:02.853Z,0
2018-04-19T03:32:02.573Z,0
2018-04-19T03:33:02.788Z,0
2018-04-19T03:34:02.774Z,0
2018-04-19T03:35:02.500Z,0
2018-04-19T03:36:02.726Z,0
2018-04-19T03:37:02.712Z,0
2018-04-19T03:38:02.438Z,0
2018-04-19T03:39:02.655Z,0
2018-04-19T03:40:02.632Z,0
2018-04-19T03:41:02.360Z,0
2018-04-19T03:42:02.591Z,0
2018-04-19T03:43:02.563Z,0
2018-04-19T03:44:02.351Z,0
2018-04-19T03:45:02.268Z,0
2018-04-19T03:46:02.491Z,0
2018-04-19T03:47:02.252Z,0
2018-04-19T03:48:01.957Z,4
2018-04-19T03:49:02.174Z,4
2018-04-19T03:50:02.156Z,4
2018-04-19T03:51:02.138Z,0
2018-04-19T03:52:02.104Z,4
2018-04-19T03:53:02.084Z,4
2018-04-19T03:54:02.393Z,4
2018-04-19T03:55:02.292Z,4
2018-04-19T03:56:02.261Z,4
2018-04-19T03:57:02.256Z,8
2018-04-19T03:58:01.971Z,8
2018-04-19T03:59:01.953Z,8
2018-04-19T04:00:01.919Z,12
2018-04-19T04:01:02.174Z,12
2018-04-19T04:02:01.882Z,16
2018-04-19T04:03:02.097Z,20
2018-04-19T04:04:02.080Z,20
2018-04-19T04:05:02.058Z,24
2018-04-19T04:06:01.790Z,28
2018-04-19T04:07:02.019Z,32
2018-04-19T04:08:01.990Z,40
2018-04-19T04:09:02.060Z,48
2018-04-19T04:10:01.940Z,56
2018-04-19T04:11:01.918Z,60
2018-04-19T04:12:01.898Z,72
2018-04-19T04:13:01.620Z,84
2018-04-19T04:14:01.959Z,100
2018-04-19T04:15:01.578Z,108
2018-04-19T04:16:01.844Z,124
2018-04-19T04:17:01.778Z,144
2018-04-19T04:18:01.521Z,164
2018-04-19T04:19:01.737Z,184
2018-04-19T04:20:01.720Z,204
2018-04-19T04:21:01.690Z,232
2018-04-19T04:22:01.662Z,256
2018-04-19T04:23:01.648Z,284
2018-04-19T04:24:01.617Z,316
2018-04-19T04:25:01.341Z,348
2018-04-19T04:26:01.567Z,380
2018-04-19T04:27:01.549Z,416
2018-04-19T04:28:01.294Z,456
2018-04-19T04:29:01.500Z,496
2018-04-19T04:30:01.481Z,540
2018-04-19T04:31:01.479Z,584
2018-04-19T04:32:01.194Z,632
2018-04-19T04:33:00.969Z,680
2018-04-19T04:34:01.393Z,728
2018-04-19T04:35:01.389Z,784
2018-04-19T04:36:01.337Z,836
2018-04-19T04:37:01.306Z,892
2018-04-19T04:38:01.282Z,948
2018-04-19T04:39:01.264Z,1008
2018-04-19T04:40:01.253Z,1068
2018-04-19T04:41:01.232Z,1128
2018-04-19T04:42:01.196Z,1188
2018-04-19T04:43:01.176Z,1252
2018-04-19T04:44:01.157Z,1312
2018-04-19T04:45:01.129Z,1376
2018-04-19T04:46:01.101Z,1440
2018-04-19T04:47:00.838Z,1508
2018-04-19T04:48:00.576Z,1572
2018-04-19T04:49:01.044Z,1632
2018-04-19T04:50:01.004Z,1704
2018-04-19T04:51:00.985Z,1768
2018-04-19T04:52:00.725Z,1832
2018-04-19T04:53:00.945Z,1904
2018-04-19T04:54:00.816Z,1972
2018-04-19T04:55:00.795Z,2044
2018-04-19T04:56:00.885Z,2104
2018-04-19T04:57:00.853Z,2160
2018-04-19T04:58:00.577Z,2224
2018-04-19T04:59:00.805Z,2288
2018-04-19T05:00:00.893Z,2352
2018-04-19T05:01:00.967Z,2416
2018-04-19T05:02:00.487Z,2476
2018-04-19T05:03:00.714Z,2536
2018-04-19T05:04:00.683Z,2596
2018-04-19T05:05:00.660Z,2660
2018-04-19T05:06:00.638Z,2720
2018-04-19T05:07:00.623Z,2776
2018-04-19T05:08:00.102Z,2828
2018-04-19T05:09:00.574Z,2888
2018-04-19T05:10:00.545Z,2940
2018-04-19T05:11:00.525Z,2996
2018-04-19T05:12:00.254Z,3048
2018-04-19T05:13:00.479Z,3104
2018-04-19T05:13:59.963Z,3160
2018-04-19T05:15:00.435Z,3212
2018-04-19T05:16:00.416Z,3264
2018-04-19T05:17:00.403Z,3312
2018-04-19T05:18:00.408Z,3364
2018-04-19T05:19:00.344Z,3412
2018-04-19T05:20:00.194Z,3460
2018-04-19T05:21:00.300Z,3512
2018-04-19T05:22:00.278Z,3560
2018-04-19T05:23:00.009Z,3604
2018-04-19T05:23:59.484Z,3640
2018-04-19T05:24:59.713Z,3688
2018-04-19T05:25:59.994Z,3732
2018-04-19T05:27:00.163Z,3780
2018-04-19T05:27:59.894Z,3816
2018-04-19T05:29:00.113Z,3860
2018-04-19T05:29:59.843Z,3904
2018-04-19T05:31:00.071Z,3948
2018-04-19T05:32:00.058Z,3988
2018-04-19T05:32:59.776Z,4028
2018-04-19T05:33:59.994Z,4072
2018-04-19T05:34:59.980Z,4116
2018-04-19T05:35:59.961Z,4160
2018-04-19T05:36:59.932Z,4208
2018-04-19T05:37:59.916Z,4244
2018-04-19T05:38:59.898Z,4288
2018-04-19T05:39:59.867Z,4332
2018-04-19T05:40:59.851Z,4372
2018-04-19T05:41:59.577Z,4412
2018-04-19T05:42:59.559Z,4456
2018-04-19T05:43:59.531Z,4504
2018-04-19T05:44:59.758Z,4556
2018-04-19T05:45:59.486Z,4608
2018-04-19T05:46:59.717Z,4656
2018-04-19T05:47:59.689Z,4704
2018-04-19T05:48:59.416Z,4748
2018-04-19T05:49:59.391Z,4800
2018-04-19T05:50:59.101Z,4840
2018-04-19T05:52:02.405Z,4892
2018-04-19T05:53:01.879Z,4932
2018-04-19T05:54:01.117Z,4980
2018-04-19T05:55:01.788Z,5020
2018-04-19T05:56:01.228Z,5064
2018-04-19T05:56:59.790Z,5100
2018-04-19T05:58:01.554Z,5144
2018-04-19T05:58:59.451Z,5184
2018-04-19T05:59:59.348Z,5216
2018-04-19T06:00:59.534Z,5252
2018-04-19T06:01:59.141Z,5284
2018-04-19T06:03:00.399Z,5308
2018-04-19T06:03:59.337Z,5332
2018-04-19T06:04:59.073Z,5356
2018-04-19T06:05:59.051Z,5380
2018-04-19T06:06:59.029Z,5408
2018-04-19T06:07:59.007Z,5428
2018-04-19T06:08:59.225Z,5452
2018-04-19T06:09:59.234Z,5476
2018-04-19T06:10:59.192Z,5500
2018-04-19T06:11:59.343Z,5524
2018-04-19T06:12:59.144Z,5564
2018-04-19T06:13:59.124Z,5748
2018-04-19T06:14:58.858Z,6884
2018-04-19T06:15:58.837Z,11876
2018-04-19T06:16:59.068Z,17120
2018-04-19T06:17:59.068Z,18048
2018-04-19T06:18:59.034Z,18304
2018-04-19T06:19:59.000Z,18912
2018-04-19T06:20:58.977Z,19264
2018-04-19T06:21:58.973Z,19584
2018-04-19T06:22:58.947Z,19392
2018-04-19T06:23:58.917Z,20064
2018-04-19T06:24:58.766Z,20576
2018-04-19T06:25:58.874Z,20672
2018-04-19T06:27:01.209Z,20672
2018-04-19T06:27:58.592Z,21408
2018-04-19T06:28:58.817Z,21728
2018-04-19T06:29:58.562Z,21920
2018-04-19T06:30:58.788Z,22496
2018-04-19T06:31:58.766Z,23328
2018-04-19T06:32:58.498Z,23424
2018-04-19T06:33:58.485Z,23584
2018-04-19T06:34:58.456Z,24192
2018-04-19T06:35:58.841Z,24576
2018-04-19T06:36:58.679Z,23584
2018-04-19T06:37:58.660Z,24480
2018-04-19T06:38:58.635Z,25248
2018-04-19T06:39:58.374Z,25504
2018-04-19T06:40:58.359Z,25824
2018-04-19T06:41:58.588Z,27072
2018-04-19T06:42:58.320Z,27488
2018-04-19T06:43:58.548Z,23584
2018-04-19T06:44:59.080Z,13060
2018-04-19T06:45:58.658Z,6272
2018-04-19T06:46:58.257Z,6212
2018-04-19T06:47:58.647Z,6216
2018-04-19T06:48:58.481Z,6240
2018-04-19T06:49:57.960Z,6260
2018-04-19T06:50:58.190Z,6280
2018-04-19T06:51:58.427Z,6344
2018-04-19T06:52:58.415Z,8388
2018-04-19T06:53:58.387Z,17300
2018-04-19T06:54:58.379Z,27296
2018-04-19T06:55:57.875Z,29568
2018-04-19T06:56:58.094Z,30048
2018-04-19T06:57:58.328Z,30176
2018-04-19T06:58:58.324Z,29536
2018-04-19T06:59:58.047Z,29376
2018-04-19T07:00:58.106Z,29152
2018-04-19T07:01:58.266Z,29088
2018-04-19T07:02:58.252Z,28096
2018-04-19T07:03:57.989Z,27168
2018-04-19T07:04:58.217Z,25888
2018-04-19T07:05:58.686Z,24576
2018-04-19T07:06:58.339Z,23232
2018-04-19T07:07:58.177Z,21824
2018-04-19T07:08:58.170Z,19936
2018-04-19T07:09:57.658Z,16816
2018-04-19T07:10:58.145Z,12480
2018-04-19T07:11:58.408Z,8644
2018-04-19T07:12:58.126Z,7168
2018-04-19T07:13:58.092Z,7644
2018-04-19T07:14:58.085Z,8808
2018-04-19T07:16:00.400Z,10740
2018-04-19T07:16:58.061Z,12820
2018-04-19T07:17:58.114Z,15616
2018-04-19T07:18:58.026Z,21376
2018-04-19T07:19:57.793Z,27872
2018-04-19T07:20:57.901Z,46464
2018-04-19T07:21:58.036Z,52160
2018-04-19T07:22:58.087Z,37696
2018-04-19T07:23:57.964Z,19168
2018-04-19T07:24:58.366Z,21888
2018-04-19T07:25:58.604Z,29280
2018-04-19T07:26:57.727Z,29312
2018-04-19T07:27:57.763Z,29184
2018-04-19T07:28:57.401Z,27968
2018-04-19T07:29:57.933Z,26400
2018-04-19T07:30:57.958Z,22976
2018-04-19T07:31:57.616Z,15828
2018-04-19T07:32:57.669Z,13952
2018-04-19T07:33:57.837Z,22400
2018-04-19T07:34:57.577Z,27328
2018-04-19T07:35:57.665Z,28288
2018-04-19T07:36:58.039Z,29600
2018-04-19T07:37:58.021Z,28704
2018-04-19T07:38:57.841Z,26048
2018-04-19T07:39:57.518Z,20000
2018-04-19T07:40:57.757Z,21184
2018-04-19T07:41:57.801Z,29344
2018-04-19T07:42:57.735Z,30944
2018-04-19T07:43:57.492Z,30656
2018-04-19T07:44:57.220Z,31328
2018-04-19T07:45:57.455Z,32256
2018-04-19T07:46:57.693Z,25280
2018-04-19T07:47:57.682Z,21056
2018-04-19T07:48:57.667Z,27968
2018-04-19T07:49:58.293Z,33440
2018-04-19T07:50:57.656Z,34784
2018-04-19T07:51:57.640Z,35360
2018-04-19T07:52:57.633Z,35232
2018-04-19T07:53:57.624Z,32288
2018-04-19T07:54:57.375Z,23008
2018-04-19T07:55:57.359Z,20864
2018-04-19T07:56:57.348Z,19968
2018-04-19T07:57:57.825Z,14816
2018-04-19T07:58:57.321Z,24512
2018-04-19T07:59:57.570Z,36544
2018-04-19T08:00:57.560Z,38848
2018-04-19T08:01:57.556Z,38080
2018-04-19T08:02:57.039Z,39584
2018-04-19T08:03:57.523Z,40640
2018-04-19T08:04:57.523Z,42464
2018-04-19T08:05:57.515Z,41600
2018-04-19T08:06:57.259Z,37248
2018-04-19T08:07:57.490Z,33120
2018-04-19T08:08:57.256Z,27040
2018-04-19T08:09:57.476Z,21056
2018-04-19T08:10:57.292Z,15856
2018-04-19T08:11:57.047Z,10868
2018-04-19T08:12:59.610Z,8400
2018-04-19T08:13:58.273Z,7860
2018-04-19T08:14:57.424Z,7552
2018-04-19T08:15:57.174Z,7352
2018-04-19T08:16:57.155Z,7240
2018-04-19T08:17:57.398Z,7184
2018-04-19T08:18:57.861Z,7180
2018-04-19T08:19:57.376Z,7180
2018-04-19T08:20:57.485Z,7180
2018-04-19T08:21:56.602Z,7196
2018-04-19T08:22:57.335Z,7196
2018-04-19T08:23:57.070Z,7220
2018-04-19T08:24:57.060Z,7308
2018-04-19T08:25:56.803Z,7496
2018-04-19T08:26:57.297Z,8028
2018-04-19T08:27:57.273Z,10220
2018-04-19T08:28:57.261Z,22144
2018-04-19T08:29:57.252Z,25312
2018-04-19T08:30:56.994Z,19584
2018-04-19T08:31:56.983Z,28128
2018-04-19T08:32:56.964Z,44224
2018-04-19T08:33:56.949Z,50720
2018-04-19T08:34:57.189Z,50336
2018-04-19T08:35:57.166Z,51232
2018-04-19T08:36:56.909Z,51488
2018-04-19T08:37:57.143Z,52160
2018-04-19T08:38:57.272Z,51680
2018-04-19T08:39:57.124Z,50752
2018-04-19T08:40:57.116Z,49088
2018-04-19T08:41:56.852Z,49152
2018-04-19T08:42:57.089Z,49888
2018-04-19T08:43:57.085Z,48864
2018-04-19T08:44:57.074Z,49760
2018-04-19T08:45:56.745Z,51552
2018-04-19T08:46:56.837Z,49408
2018-04-19T08:47:56.797Z,45120
2018-04-19T08:48:57.030Z,41344
2018-04-19T08:49:56.778Z,35456
2018-04-19T08:50:57.014Z,28768
2018-04-19T08:51:57.002Z,25408
2018-04-19T08:52:56.741Z,20416
2018-04-19T08:53:56.482Z,15280
2018-04-19T08:54:56.971Z,12016
2018-04-19T08:55:56.717Z,10400
2018-04-19T08:56:56.953Z,9920
2018-04-19T08:57:56.944Z,9464
2018-04-19T08:58:56.684Z,9072
2018-04-19T08:59:56.921Z,8748
2018-04-19T09:00:56.912Z,8512
2018-04-19T09:01:56.649Z,8284
2018-04-19T09:02:57.015Z,8128
2018-04-19T09:03:56.391Z,7980
2018-04-19T09:04:56.626Z,7840
2018-04-19T09:05:56.857Z,7752
2018-04-19T09:06:56.850Z,7656
2018-04-19T09:07:56.714Z,7572
2018-04-19T09:08:56.694Z,7528
2018-04-19T09:09:56.961Z,7528
2018-04-19T09:10:56.806Z,7528
2018-04-19T09:11:56.976Z,7540
2018-04-19T09:12:56.831Z,7524
2018-04-19T09:13:56.769Z,7516
2018-04-19T09:14:56.762Z,7532
2018-04-19T09:15:56.743Z,7536
2018-04-19T09:16:56.529Z,7516
2018-04-19T09:17:56.712Z,7532
2018-04-19T09:18:56.712Z,7536
2018-04-19T09:19:56.698Z,7544
2018-04-19T09:20:56.444Z,7552
2018-04-19T09:21:56.425Z,7540
2018-04-19T09:22:56.809Z,7556
2018-04-19T09:23:56.408Z,7568
2018-04-19T09:24:56.640Z,7580
2018-04-19T09:25:56.628Z,7564
2018-04-19T09:26:56.807Z,7584
2018-04-19T09:27:56.524Z,7604
2018-04-19T09:28:56.597Z,7596
2018-04-19T09:29:56.581Z,7604
2018-04-19T09:30:56.314Z,7596
2018-04-19T09:31:56.547Z,7580
2018-04-19T09:32:56.540Z,7596
2018-04-19T09:33:56.278Z,7640
2018-04-19T09:34:56.519Z,7656
2018-04-19T09:35:56.504Z,7680
2018-04-19T09:36:56.250Z,7688
2018-04-19T09:37:56.474Z,7680
2018-04-19T09:38:56.474Z,7684
2018-04-19T09:39:56.453Z,7708
2018-04-19T09:40:56.249Z,7704
2018-04-19T09:41:56.422Z,7700
2018-04-19T09:42:56.216Z,7732
2018-04-19T09:43:55.660Z,7760
2018-04-19T09:44:56.398Z,7740
2018-04-19T09:45:56.659Z,7732
2018-04-19T09:46:56.378Z,7728
2018-04-19T09:47:56.426Z,7728
2018-04-19T09:48:56.367Z,7728
2018-04-19T09:49:56.428Z,7716
2018-04-19T09:50:56.323Z,7716
2018-04-19T09:51:56.435Z,7716
2018-04-19T09:52:56.050Z,7728
2018-04-19T09:53:56.421Z,7728
2018-04-19T09:54:56.123Z,7736
2018-04-19T09:55:56.259Z,7752
2018-04-19T09:56:56.012Z,7752
2018-04-19T09:57:56.240Z,7720
2018-04-19T09:58:56.223Z,7704
2018-04-19T09:59:56.212Z,7704
2018-04-19T10:00:56.198Z,7708
2018-04-19T10:01:56.120Z,7712
2018-04-19T10:02:55.932Z,7700
2018-04-19T10:03:56.165Z,7700
2018-04-19T10:04:56.290Z,7684
2018-04-19T10:05:57.009Z,7680
2018-04-19T10:06:56.125Z,7672
2018-04-19T10:07:55.871Z,7668
2018-04-19T10:08:55.858Z,7672
2018-04-19T10:09:55.598Z,7688
2018-04-19T10:10:55.839Z,7692
2018-04-19T10:11:56.070Z,7684
2018-04-19T10:12:56.062Z,7656
2018-04-19T10:13:55.806Z,7652
2018-04-19T10:14:56.039Z,7660
2018-04-19T10:15:56.289Z,7664
2018-04-19T10:16:56.067Z,7692
2018-04-19T10:17:56.458Z,7700
2018-04-19T10:18:55.994Z,7692
2018-04-19T10:19:55.983Z,7696
2018-04-19T10:20:55.626Z,7708
2018-04-19T10:21:55.716Z,7708
2018-04-19T10:22:55.985Z,7712
2018-04-19T10:23:56.269Z,7712
2018-04-19T10:24:56.354Z,7700
2018-04-19T10:25:55.925Z,7696
2018-04-19T10:26:55.908Z,7696
2018-04-19T10:27:55.901Z,7688
2018-04-19T10:28:55.885Z,7664
2018-04-19T10:29:55.907Z,7656
2018-04-19T10:30:55.861Z,7636
2018-04-19T10:31:55.599Z,7640
2018-04-19T10:32:55.835Z,7672
2018-04-19T10:33:56.013Z,7692
2018-04-19T10:34:55.818Z,7704
2018-04-19T10:35:55.877Z,7716
2018-04-19T10:36:55.931Z,7692
2018-04-19T10:37:55.838Z,7684
2018-04-19T10:38:56.214Z,7692
2018-04-19T10:39:55.767Z,7672
2018-04-19T10:40:55.751Z,7652
2018-04-19T10:41:55.743Z,7652
2018-04-19T10:42:55.743Z,7652
2018-04-19T10:43:55.713Z,7660
2018-04-19T10:44:55.738Z,7648
2018-04-19T10:45:55.477Z,7640
2018-04-19T10:46:55.778Z,7652
2018-04-19T10:47:55.482Z,7660
2018-04-19T10:48:55.231Z,7648
2018-04-19T10:49:55.694Z,7644
2018-04-19T10:50:55.421Z,7652
2018-04-19T10:51:55.629Z,7676
2018-04-19T10:52:55.620Z,7648
2018-04-19T10:53:55.609Z,7616
2018-04-19T10:54:55.608Z,7584
2018-04-19T10:55:55.089Z,7580
2018-04-19T10:56:55.582Z,7600
2018-04-19T10:57:55.312Z,7596
2018-04-19T10:58:55.306Z,7628
2018-04-19T10:59:55.547Z,7628
2018-04-19T11:00:55.631Z,7628
2018-04-19T11:01:55.276Z,7636
2018-04-19T11:02:55.505Z,7644
2018-04-19T11:03:55.253Z,7632
2018-04-19T11:04:55.487Z,7624
2018-04-19T11:05:55.472Z,7640
2018-04-19T11:06:55.482Z,7640
2018-04-19T11:07:55.459Z,7656
2018-04-19T11:08:55.195Z,7688
2018-04-19T11:09:55.187Z,7716
2018-04-19T11:10:55.529Z,7752
2018-04-19T11:11:56.842Z,7784
2018-04-19T11:12:55.404Z,7776
2018-04-19T11:13:55.150Z,7768
2018-04-19T11:14:55.381Z,7772
2018-04-19T11:15:55.424Z,7768
2018-04-19T11:16:55.111Z,7760
2018-04-19T11:17:55.743Z,7748
2018-04-19T11:18:55.343Z,7740
2018-04-19T11:19:55.332Z,7736
2018-04-19T11:20:55.321Z,7736
2018-04-19T11:21:54.813Z,7764
2018-04-19T11:22:55.083Z,7776
2018-04-19T11:23:55.291Z,7752
2018-04-19T11:24:55.287Z,7760
2018-04-19T11:25:55.420Z,7752
2018-04-19T11:26:55.268Z,7744
2018-04-19T11:27:54.761Z,7780
2018-04-19T11:28:55.245Z,7784
2018-04-19T11:29:55.230Z,7772
2018-04-19T11:30:54.727Z,7780
2018-04-19T11:31:54.961Z,7820
2018-04-19T11:32:54.963Z,7844
2018-04-19T11:33:55.193Z,7856
2018-04-19T11:34:54.680Z,7868
2018-04-19T11:35:55.177Z,7872
2018-04-19T11:36:54.916Z,7876
2018-04-19T11:37:54.659Z,7884
2018-04-19T11:38:55.258Z,7896
2018-04-19T11:39:55.130Z,7920
2018-04-19T11:40:54.880Z,7924
2018-04-19T11:41:54.868Z,7920
2018-04-19T11:42:55.105Z,7908
2018-04-19T11:43:54.843Z,7872
2018-04-19T11:44:54.834Z,7916
2018-04-19T11:45:55.079Z,7936
2018-04-19T11:46:54.822Z,7956
2018-04-19T11:47:55.059Z,7984
2018-04-19T11:48:54.801Z,7996
2018-04-19T11:49:55.030Z,8008
2018-04-19T11:50:54.780Z,8068
2018-04-19T11:51:54.776Z,8092
2018-04-19T11:52:54.752Z,8128
2018-04-19T11:53:54.751Z,8148
2018-04-19T11:54:54.739Z,8152
2018-04-19T11:55:54.787Z,8196
2018-04-19T11:56:54.718Z,8240
2018-04-19T11:57:54.956Z,8288
2018-04-19T11:58:54.946Z,8356
2018-04-19T11:59:54.958Z,8404
2018-04-19T12:00:54.969Z,8476
2018-04-19T12:01:54.917Z,8516
2018-04-19T12:02:54.905Z,8564
2018-04-19T12:03:54.162Z,8596
2018-04-19T12:04:54.907Z,8636
2018-04-19T12:05:54.632Z,8648
2018-04-19T12:06:54.874Z,8676
2018-04-19T12:07:54.860Z,8696
2018-04-19T12:08:54.854Z,8712
2018-04-19T12:09:54.597Z,8740
2018-04-19T12:10:54.839Z,8768
2018-04-19T12:11:54.574Z,8772
2018-04-19T12:12:54.816Z,8808
2018-04-19T12:13:54.645Z,8856
2018-04-19T12:14:54.807Z,8872
2018-04-19T12:15:54.539Z,8884
2018-04-19T12:16:54.790Z,8892
2018-04-19T12:17:54.774Z,8912
2018-04-19T12:18:54.764Z,8956
2018-04-19T12:19:54.674Z,8972
2018-04-19T12:20:54.751Z,8984
2018-04-19T12:21:54.239Z,8988
2018-04-19T12:22:54.227Z,9016
2018-04-19T12:23:54.473Z,9076
2018-04-19T12:24:54.459Z,9100
2018-04-19T12:25:54.449Z,9084
2018-04-19T12:26:54.195Z,9112
2018-04-19T12:27:54.439Z,9156
2018-04-19T12:28:54.669Z,9180
2018-04-19T12:29:54.420Z,9220
2018-04-19T12:30:54.656Z,9252
2018-04-19T12:31:54.658Z,9288
2018-04-19T12:32:54.638Z,9284
2018-04-19T12:33:54.634Z,9272
2018-04-19T12:34:54.618Z,9272
2018-04-19T12:35:54.611Z,9304
2018-04-19T12:36:54.596Z,9328
2018-04-19T12:37:54.993Z,9364
2018-04-19T12:38:54.341Z,9372
2018-04-19T12:39:54.582Z,9372
2018-04-19T12:40:54.576Z,9376
2018-04-19T12:41:54.312Z,9388
2018-04-19T12:42:54.550Z,9388
2018-04-19T12:43:54.541Z,9384
2018-04-19T12:44:54.535Z,9396
2018-04-19T12:45:54.275Z,9428
2018-04-19T12:46:54.526Z,9336
2018-04-19T12:47:54.258Z,9408
2018-04-19T12:48:54.500Z,9388
2018-04-19T12:49:54.496Z,9372
2018-04-19T12:50:54.489Z,9372
2018-04-19T12:51:54.222Z,9372
2018-04-19T12:52:54.465Z,9384
2018-04-19T12:53:53.960Z,9376
2018-04-19T12:54:54.445Z,9372
2018-04-19T12:55:54.334Z,9364
2018-04-19T12:56:54.431Z,9372
2018-04-19T12:57:54.169Z,9380
2018-04-19T12:58:54.159Z,9388
2018-04-19T12:59:54.151Z,9368
2018-04-19T13:00:54.146Z,9376
2018-04-19T13:01:54.186Z,9376
2018-04-19T13:02:54.380Z,9360
2018-04-19T13:03:54.375Z,9336
2018-04-19T13:04:53.859Z,9340
2018-04-19T13:05:54.348Z,9348
2018-04-19T13:06:54.339Z,9364
2018-04-19T13:07:54.344Z,9360
2018-04-19T13:08:54.102Z,9380
2018-04-19T13:09:53.817Z,9360
2018-04-19T13:10:54.055Z,9340
2018-04-19T13:11:54.868Z,9316
2018-04-19T13:12:54.170Z,9288
2018-04-19T13:13:53.779Z,9272
2018-04-19T13:14:54.514Z,9268
2018-04-19T13:15:54.008Z,9268
2018-04-19T13:16:54.808Z,9256
2018-04-19T13:17:54.249Z,9240
2018-04-19T13:18:54.237Z,9204
2018-04-19T13:19:54.323Z,9180
2018-04-19T13:20:54.221Z,9156
2018-04-19T13:21:53.979Z,9128
2018-04-19T13:22:54.208Z,9096
2018-04-19T13:23:54.190Z,9088
2018-04-19T13:24:54.187Z,9108
2018-04-19T13:25:54.119Z,9108
2018-04-19T13:26:53.948Z,9108
2018-04-19T13:27:54.159Z,9116
2018-04-19T13:28:53.898Z,9132
2018-04-19T13:29:55.025Z,9124
2018-04-19T13:30:54.898Z,9124
2018-04-19T13:31:54.137Z,9132
2018-04-19T13:32:53.870Z,9136
2018-04-19T13:33:54.109Z,9176
2018-04-19T13:34:53.959Z,9204
2018-04-19T13:35:54.092Z,9232
2018-04-19T13:36:53.958Z,9252
2018-04-19T13:37:53.827Z,9276
2018-04-19T13:38:54.083Z,9264